Time;durP1;ratioP1;P1;durP2;ratioP2;P2;SDS_P1;SDS_P2;PMS_P1;PMS_P2;Temp;Humidity;BMP_temperature;BMP_pressure;BME280_temperature;BME280_humidity;BME280_pressure;Samples;Min_cycle;Max_cycle;Signal;HPM_P1;HPM_P2
2022/03/19 00:00:17;;;;;;;7.60;3.70;;;;;;;6.04;50.62;102563.28;5051685;28;20205;-59
2022/03/19 00:02:43;;;;;;;11.53;3.00;;;;;;;6.00;50.74;102583.69;5067218;28;20177;-60
2022/03/19 00:05:09;;;;;;;7.87;3.20;;;;;;;5.95;50.86;102569.16;5057936;28;20219;-59
2022/03/19 00:07:38;;;;;;;8.13;3.47;;;;;;;5.96;50.93;102575.13;5057303;28;20267;-58
2022/03/19 00:10:08;;;;;;;5.67;3.20;;;;;;;5.92;50.98;102571.69;5069113;28;20161;-59
2022/03/19 00:12:34;;;;;;;6.37;3.20;;;;;;;5.95;50.82;102571.72;5104290;28;20252;-59
2022/03/19 00:14:59;;;;;;;8.70;3.30;;;;;;;5.90;51.14;102569.97;5073414;28;20210;-59
2022/03/19 00:17:24;;;;;;;6.63;3.10;;;;;;;5.94;50.78;102579.34;5078985;28;20660;-60
2022/03/19 00:19:50;;;;;;;5.67;3.53;;;;;;;5.97;50.67;102562.34;5073759;28;20167;-60
2022/03/19 00:22:15;;;;;;;4.53;2.80;;;;;;;5.97;50.95;102564.06;5079695;28;20215;-59
2022/03/19 00:24:40;;;;;;;7.57;2.97;;;;;;;5.99;50.73;102567.47;5073166;28;20174;-59
2022/03/19 00:27:06;;;;;;;5.90;3.07;;;;;;;5.99;50.85;102567.47;5072388;28;20180;-59
2022/03/19 00:29:31;;;;;;;4.77;3.17;;;;;;;5.94;51.13;102574.25;5073603;28;20513;-59
2022/03/19 00:31:56;;;;;;;10.40;3.57;;;;;;;5.96;51.03;102564.91;5056821;27;20342;-61
2022/03/19 00:34:22;;;;;;;10.00;3.67;;;;;;;5.94;51.14;102564.91;5073596;28;20224;-60
2022/03/19 00:36:47;;;;;;;5.63;3.07;;;;;;;5.87;51.61;102559.75;5071311;28;20175;-59
2022/03/19 00:39:12;;;;;;;5.03;2.60;;;;;;;5.87;51.35;102550.38;5063538;28;20573;-59
2022/03/19 00:41:38;;;;;;;4.17;2.97;;;;;;;5.91;51.45;102557.22;5088632;28;20298;-59
2022/03/19 00:44:03;;;;;;;5.70;2.73;;;;;;;5.85;51.55;102549.50;5078587;28;20219;-61
2022/03/19 00:46:28;;;;;;;6.63;2.90;;;;;;;5.77;52.18;102556.31;5067135;28;20537;-61
2022/03/19 00:48:54;;;;;;;6.20;2.83;;;;;;;5.77;51.72;102546.94;5053412;28;20839;-59
2022/03/19 00:51:19;;;;;;;3.37;2.70;;;;;;;5.79;52.12;102541.81;5066193;28;20227;-59
2022/03/19 00:53:44;;;;;;;7.80;2.87;;;;;;;5.80;51.98;102540.97;5077309;28;20194;-59
2022/03/19 00:56:10;;;;;;;4.40;2.63;;;;;;;5.78;52.32;102551.19;5073095;28;20216;-59
2022/03/19 00:58:35;;;;;;;8.00;2.80;;;;;;;5.79;52.35;102552.91;5054969;28;20646;-59
2022/03/19 01:01:01;;;;;;;5.83;2.97;;;;;;;5.79;52.18;102546.94;5069891;28;20247;-59
2022/03/19 01:03:26;;;;;;;7.83;2.80;;;;;;;5.84;52.38;102541.84;5080350;28;20184;-59
2022/03/19 01:05:52;;;;;;;7.60;3.27;;;;;;;5.81;52.55;102538.44;5071423;28;20573;-59
2022/03/19 01:08:18;;;;;;;7.77;2.67;;;;;;;5.77;52.88;102534.16;5071577;28;20263;-59
2022/03/19 01:10:43;;;;;;;6.07;2.97;;;;;;;5.78;52.82;102535.00;5067274;28;20614;-59
2022/03/19 01:13:09;;;;;;;6.67;3.30;;;;;;;5.81;52.93;102542.69;5067850;28;20189;-59
2022/03/19 01:15:34;;;;;;;6.23;2.70;;;;;;;5.77;53.30;102535.88;5052218;28;20187;-59
2022/03/19 01:18:00;;;;;;;4.43;3.13;;;;;;;5.70;53.58;102539.25;5052231;28;20642;-59
2022/03/19 01:20:26;;;;;;;7.90;3.20;;;;;;;5.69;53.95;102540.91;5048533;28;20302;-59
2022/03/19 01:22:51;;;;;;;5.97;3.00;;;;;;;5.70;53.99;102540.09;5086664;28;20335;-60
2022/03/19 01:25:18;;;;;;;7.50;3.77;;;;;;;5.70;54.26;102534.13;5069588;28;20185;-60
2022/03/19 01:27:46;;;;;;;7.53;3.40;;;;;;;5.69;54.44;102540.09;5071175;28;20238;-59
2022/03/19 01:30:14;;;;;;;10.27;3.60;;;;;;;5.66;54.69;102533.25;5062836;28;20176;-61
2022/03/19 01:32:41;;;;;;;4.93;2.70;;;;;;;5.66;54.71;102534.09;5101555;28;20231;-59
2022/03/19 01:35:08;;;;;;;6.83;3.17;;;;;;;5.70;54.65;102532.41;5063660;28;20201;-59
2022/03/19 01:37:33;;;;;;;6.43;3.20;;;;;;;5.70;54.66;102540.09;5058937;28;20192;-59
2022/03/19 01:39:59;;;;;;;10.67;3.83;;;;;;;5.72;54.68;102528.19;5052061;28;20538;-59
2022/03/19 01:42:26;;;;;;;7.27;2.73;;;;;;;5.76;54.60;102523.94;5074193;28;20233;-58
2022/03/19 01:44:53;;;;;;;5.70;2.80;;;;;;;5.73;54.79;102524.78;5050180;28;20180;-61
2022/03/19 01:47:19;;;;;;;4.47;3.43;;;;;;;5.75;54.68;102517.97;5050995;28;20264;-58
2022/03/19 01:49:45;;;;;;;8.73;2.77;;;;;;;5.74;54.70;102523.06;5050763;28;20260;-59
2022/03/19 01:52:10;;;;;;;6.63;3.60;;;;;;;5.77;54.59;102523.09;5080555;28;20361;-59
2022/03/19 01:54:37;;;;;;;7.77;2.70;;;;;;;5.69;55.05;102517.94;5063794;28;20238;-58
2022/03/19 01:57:03;;;;;;;7.30;2.93;;;;;;;5.72;55.01;102512.88;5070372;28;20254;-57
2022/03/19 01:59:35;;;;;;;6.20;2.70;;;;;;;5.72;55.02;102514.53;5070397;28;20688;-60
2022/03/19 02:02:03;;;;;;;5.40;3.10;;;;;;;5.68;55.34;102516.25;5084755;28;20240;-59
2022/03/19 02:04:28;;;;;;;10.57;3.20;;;;;;;5.63;55.66;102511.13;5068895;28;20480;-60
2022/03/19 02:06:54;;;;;;;5.60;3.00;;;;;;;5.66;55.66;102500.06;5071875;28;20206;-58
2022/03/19 02:09:20;;;;;;;7.27;2.90;;;;;;;5.64;55.71;102502.63;5070276;28;20181;-58
2022/03/19 02:11:45;;;;;;;5.03;3.07;;;;;;;5.60;55.98;102503.44;5088841;28;20278;-59
2022/03/19 02:14:10;;;;;;;6.47;2.73;;;;;;;5.66;55.73;102494.97;5075534;28;20196;-60
2022/03/19 02:16:37;;;;;;;6.50;3.37;;;;;;;5.63;56.03;102489.81;5070449;28;20781;-59
2022/03/19 02:19:03;;;;;;;8.73;3.33;;;;;;;5.59;56.41;102493.22;5070500;28;20165;-60
2022/03/19 02:21:45;;;;;;;8.40;3.10;;;;;;;5.57;56.40;102487.25;5075032;28;20267;-59
2022/03/19 02:26:56;;;;;;;5.30;3.23;;;;;;;5.65;56.35;102480.47;5063426;28;20191;-58
2022/03/19 02:29:22;;;;;;;6.90;3.03;;;;;;;5.63;56.49;102475.38;5058865;28;20190;-60
2022/03/19 02:31:52;;;;;;;6.00;3.10;;;;;;;5.63;56.64;102474.50;5058531;28;20631;-60
2022/03/19 02:34:18;;;;;;;6.33;3.13;;;;;;;5.62;56.79;102475.38;5065982;28;20193;-59
2022/03/19 02:36:43;;;;;;;6.23;3.13;;;;;;;5.63;56.84;102470.25;5050040;28;20201;-59
2022/03/19 02:39:09;;;;;;;5.77;3.43;;;;;;;5.57;57.18;102469.38;5049972;28;20175;-59
2022/03/19 02:41:35;;;;;;;7.90;3.30;;;;;;;5.62;56.85;102467.72;5059967;28;20319;-58
2022/03/19 02:44:00;;;;;;;7.60;3.53;;;;;;;5.61;57.04;102466.00;5078015;28;20205;-58
2022/03/19 02:46:42;;;;;;;8.33;3.37;;;;;;;5.53;57.25;102467.66;5074920;28;20190;-59
2022/03/19 02:49:08;;;;;;;6.80;3.13;;;;;;;5.55;57.49;102460.88;5074082;28;20173;-60
2022/03/19 02:51:34;;;;;;;12.47;3.60;;;;;;;5.50;57.60;102461.69;5089397;28;20580;-58
2022/03/19 02:54:01;;;;;;;8.17;3.47;;;;;;;5.52;57.72;102461.72;5077295;28;20651;-58
2022/03/19 02:56:27;;;;;;;9.47;3.53;;;;;;;5.47;57.94;102463.38;5067650;28;20272;-60
2022/03/19 02:58:52;;;;;;;7.30;3.70;;;;;;;5.42;58.38;102457.38;5058957;28;20201;-60
2022/03/19 03:01:17;;;;;;;7.57;4.03;;;;;;;5.45;58.34;102457.41;5057366;28;20319;-59
2022/03/19 03:03:43;;;;;;;7.13;3.60;;;;;;;5.39;58.69;102454.84;5066541;28;20173;-59
2022/03/19 03:06:08;;;;;;;7.50;3.17;;;;;;;5.32;59.22;102459.91;5053471;28;20182;-60
2022/03/19 03:08:34;;;;;;;6.13;3.47;;;;;;;5.30;59.46;102456.47;5055279;28;20173;-59
2022/03/19 03:10:59;;;;;;;13.00;3.80;;;;;;;5.36;59.39;102457.34;5059623;28;20222;-59
2022/03/19 03:13:24;;;;;;;10.00;4.70;;;;;;;5.36;59.87;102458.22;5075796;28;20659;-60
2022/03/19 03:15:50;;;;;;;9.37;4.30;;;;;;;5.32;59.87;102453.94;5074563;28;20192;-60
2022/03/19 03:18:15;;;;;;;6.83;3.90;;;;;;;5.36;59.85;102459.91;5074561;28;20198;-59
2022/03/19 03:20:40;;;;;;;7.70;4.17;;;;;;;5.32;60.11;102454.81;5065991;28;20242;-58
2022/03/19 03:23:06;;;;;;;8.13;4.43;;;;;;;5.32;60.33;102456.47;5085460;28;20208;-59
2022/03/19 03:25:31;;;;;;;7.43;4.57;;;;;;;5.28;60.86;102463.28;5074562;28;20203;-59
2022/03/19 03:27:56;;;;;;;11.80;4.40;;;;;;;5.32;60.89;102459.03;5074902;28;20172;-59
2022/03/19 03:30:22;;;;;;;11.40;4.53;;;;;;;5.27;60.84;102460.72;5063108;28;20623;-61
2022/03/19 03:32:47;;;;;;;11.97;4.40;;;;;;;5.27;61.17;102459.03;5089553;28;20201;-59
2022/03/19 03:35:12;;;;;;;13.43;5.40;;;;;;;5.24;61.29;102465.81;5054051;28;20197;-62
2022/03/19 03:37:38;;;;;;;9.40;4.90;;;;;;;5.15;61.84;102459.81;5054195;28;20174;-59
2022/03/19 03:40:05;;;;;;;10.63;4.73;;;;;;;5.20;61.81;102451.31;5044783;28;20168;-59
2022/03/19 03:42:30;;;;;;;9.27;4.57;;;;;;;5.20;61.73;102467.50;5086004;28;20256;-59
2022/03/19 03:44:58;;;;;;;7.10;4.70;;;;;;;5.14;62.16;102459.81;5053975;28;20260;-58
2022/03/19 03:47:25;;;;;;;12.37;5.53;;;;;;;5.14;62.06;102449.59;5052821;28;20169;-58
2022/03/19 03:49:53;;;;;;;12.43;4.73;;;;;;;5.10;62.33;102456.38;5052625;28;20170;-59
2022/03/19 03:52:19;;;;;;;10.93;5.60;;;;;;;5.12;62.47;102452.16;5084054;28;20226;-59
2022/03/19 03:54:44;;;;;;;7.43;3.83;;;;;;;5.11;62.18;102452.13;5073855;28;20173;-58
2022/03/19 03:57:10;;;;;;;9.77;4.60;;;;;;;5.08;62.23;102445.28;5073401;28;20192;-58
2022/03/19 03:59:35;;;;;;;9.87;4.67;;;;;;;5.08;62.39;102444.47;5074184;28;20175;-59
2022/03/19 04:02:00;;;;;;;9.23;4.27;;;;;;;5.09;62.20;102441.06;5052099;28;20224;-60
2022/03/19 04:04:26;;;;;;;11.17;5.10;;;;;;;5.06;62.46;102446.13;5073235;28;20233;-60
2022/03/19 04:06:51;;;;;;;9.33;4.47;;;;;;;5.06;62.13;102439.34;5073974;28;20183;-59
2022/03/19 04:09:16;;;;;;;9.43;4.77;;;;;;;5.00;62.25;102436.75;5074007;28;20172;-60
2022/03/19 04:11:42;;;;;;;8.83;4.60;;;;;;;4.99;62.24;102435.06;5075948;28;20295;-61
2022/03/19 04:14:08;;;;;;;8.80;4.27;;;;;;;4.99;62.06;102430.78;5075762;28;20193;-60
2022/03/19 04:16:33;;;;;;;8.13;3.90;;;;;;;4.97;62.06;102427.41;5065228;28;20232;-59
2022/03/19 04:18:58;;;;;;;9.00;3.77;;;;;;;4.95;62.14;102436.72;5077911;28;20186;-59
2022/03/19 04:21:23;;;;;;;8.80;4.37;;;;;;;4.91;62.05;102436.69;5073977;28;20251;-59
2022/03/19 04:23:49;;;;;;;6.93;3.37;;;;;;;4.85;62.19;102438.34;5078261;28;20750;-64
2022/03/19 04:26:14;;;;;;;8.43;3.73;;;;;;;4.81;62.40;102429.00;5073703;28;20176;-59
2022/03/19 04:28:39;;;;;;;7.87;3.70;;;;;;;4.81;62.47;102431.53;5063990;28;20635;-59
2022/03/19 04:31:05;;;;;;;7.30;3.20;;;;;;;4.80;62.40;102429.81;5048400;27;20289;-59
2022/03/19 04:33:31;;;;;;;10.63;4.20;;;;;;;4.83;61.89;102434.94;5080620;28;20600;-64
2022/03/19 04:38:40;;;;;;;10.53;4.83;;;;;;;4.70;62.66;102443.34;5073719;28;20283;-58
2022/03/19 04:41:06;;;;;;;9.80;3.70;;;;;;;4.67;62.67;102433.97;5080511;28;20318;-60
2022/03/19 04:43:31;;;;;;;8.93;3.63;;;;;;;4.67;62.62;102433.13;5088099;28;20199;-60
2022/03/19 04:45:56;;;;;;;9.80;4.33;;;;;;;4.63;62.96;102432.25;5073187;28;20255;-59
2022/03/19 04:48:22;;;;;;;7.47;3.00;;;;;;;4.69;62.50;102436.56;5073088;28;20324;-59
2022/03/19 04:50:48;;;;;;;7.80;3.83;;;;;;;4.73;62.15;102435.72;5070975;28;20226;-60
2022/03/19 04:53:13;;;;;;;8.67;3.67;;;;;;;4.76;62.48;102433.19;5065485;28;20200;-59
2022/03/19 04:55:40;;;;;;;6.43;3.33;;;;;;;4.65;62.58;102432.25;5072814;28;20603;-59
2022/03/19 04:58:07;;;;;;;9.13;3.30;;;;;;;4.59;62.81;102439.84;5071540;28;20179;-58
2022/03/19 05:00:33;;;;;;;7.37;3.23;;;;;;;4.62;62.67;102437.34;5068551;28;20652;-60
2022/03/19 05:02:58;;;;;;;5.37;3.10;;;;;;;4.60;62.96;102439.00;5097147;28;20311;-59
2022/03/19 05:05:24;;;;;;;7.50;3.13;;;;;;;4.58;63.01;102436.47;5072668;28;20176;-59
2022/03/19 05:07:54;;;;;;;7.37;3.10;;;;;;;4.52;63.27;102441.50;5071189;28;20206;-60
2022/03/19 05:13:03;;;;;;;6.33;2.97;;;;;;;4.53;63.14;102441.50;5083263;28;20720;-59
2022/03/19 05:15:29;;;;;;;11.30;3.50;;;;;;;4.47;63.40;102435.53;5071454;28;20212;-59
2022/03/19 05:17:54;;;;;;;6.43;3.10;;;;;;;4.45;63.64;102435.53;5072089;28;20188;-60
2022/03/19 05:20:23;;;;;;;9.07;3.47;;;;;;;4.40;63.64;102428.66;5064301;28;20182;-59
2022/03/19 05:22:48;;;;;;;7.83;2.90;;;;;;;4.42;63.85;102437.19;5085679;28;20226;-59
2022/03/19 05:25:13;;;;;;;9.63;2.93;;;;;;;4.36;63.84;102432.88;5066566;28;20180;-59
2022/03/19 05:27:39;;;;;;;5.73;3.37;;;;;;;4.38;63.81;102430.31;5061316;28;20659;-61
2022/03/19 05:30:09;;;;;;;6.87;3.03;;;;;;;4.39;63.62;102430.38;5042100;28;20204;-59
2022/03/19 05:32:39;;;;;;;5.80;2.70;;;;;;;4.37;63.82;102429.50;5087758;28;20204;-59
2022/03/19 05:35:06;;;;;;;7.87;3.03;;;;;;;4.47;63.23;102436.34;5070799;28;20206;-58
2022/03/19 05:37:31;;;;;;;6.27;3.03;;;;;;;4.44;63.50;102436.34;5050974;28;20189;-58
2022/03/19 05:39:57;;;;;;;6.97;2.80;;;;;;;4.38;63.87;102436.31;5052173;28;20181;-58
2022/03/19 05:42:24;;;;;;;7.47;3.47;;;;;;;4.43;63.46;102437.19;5073919;28;20260;-60
2022/03/19 05:44:50;;;;;;;10.87;3.47;;;;;;;4.33;63.91;102438.78;5051690;28;20172;-59
2022/03/19 05:47:15;;;;;;;6.27;3.40;;;;;;;4.38;63.61;102440.53;5052302;28;20578;-58
2022/03/19 05:49:41;;;;;;;5.70;3.10;;;;;;;4.35;63.78;102434.56;5050933;28;20247;-59
2022/03/19 05:52:07;;;;;;;6.30;2.77;;;;;;;4.45;63.24;102440.63;5080596;28;20666;-59
2022/03/19 05:54:32;;;;;;;11.57;3.23;;;;;;;4.49;63.06;102433.81;5071544;28;20203;-61
2022/03/19 05:56:57;;;;;;;7.50;3.07;;;;;;;4.56;63.32;102437.28;5071913;28;20229;-60
2022/03/19 05:59:23;;;;;;;6.70;2.93;;;;;;;4.48;63.12;102438.06;5071996;28;20176;-60
2022/03/19 06:01:49;;;;;;;4.27;2.60;;;;;;;4.53;62.71;102438.97;5052778;28;20678;-65
2022/03/19 06:04:15;;;;;;;5.40;2.60;;;;;;;4.46;63.07;102438.91;5054069;28;20188;-58
2022/03/19 06:06:41;;;;;;;7.53;2.90;;;;;;;4.45;63.34;102442.28;5057798;28;20216;-58
2022/03/19 06:09:06;;;;;;;6.43;3.07;;;;;;;4.53;63.30;102441.50;5072089;28;20203;-58
2022/03/19 06:11:31;;;;;;;8.30;3.47;;;;;;;4.60;62.60;102439.88;5084992;28;20318;-59
2022/03/19 06:13:57;;;;;;;6.07;3.00;;;;;;;4.60;62.67;102442.44;5079219;28;20940;-58
2022/03/19 06:16:23;;;;;;;8.17;3.20;;;;;;;4.65;62.71;102437.34;5070434;28;20201;-59
2022/03/19 06:18:50;;;;;;;6.53;2.80;;;;;;;4.73;62.32;102433.16;5071678;28;20196;-59
2022/03/19 06:21:19;;;;;;;8.70;3.40;;;;;;;4.76;62.30;102429.78;5072881;28;20227;-60
2022/03/19 06:23:46;;;;;;;5.80;2.90;;;;;;;4.87;62.37;102430.72;5067239;28;20186;-65
2022/03/19 06:26:12;;;;;;;6.83;3.33;;;;;;;4.95;61.69;102436.72;5067017;28;20184;-58
2022/03/19 06:28:37;;;;;;;4.57;2.80;;;;;;;4.92;62.20;102426.50;5071637;28;20467;-60
2022/03/19 06:31:03;;;;;;;4.60;3.13;;;;;;;5.07;61.66;102430.00;5077238;28;20246;-59
2022/03/19 06:33:28;;;;;;;11.00;3.30;;;;;;;5.14;61.31;102429.19;5087718;28;20189;-59
2022/03/19 06:38:37;;;;;;;6.53;3.13;;;;;;;5.84;58.97;102430.31;5071560;28;20227;-60
2022/03/19 06:41:02;;;;;;;9.93;3.87;;;;;;;6.20;56.81;102436.41;5077759;28;20870;-60
2022/03/19 06:43:28;;;;;;;10.77;3.17;;;;;;;6.26;56.55;102427.88;5087808;28;20181;-60
2022/03/19 06:45:58;;;;;;;5.83;3.20;;;;;;;6.95;54.95;102421.88;5070994;28;20166;-58
2022/03/19 06:48:25;;;;;;;10.33;3.53;;;;;;;7.67;52.09;102427.59;5069776;28;20196;-56
2022/03/19 06:50:50;;;;;;;9.87;3.20;;;;;;;8.05;50.63;102423.94;5069356;28;20252;-57
2022/03/19 06:53:16;;;;;;;5.50;3.20;;;;;;;8.31;49.96;102426.34;5090454;28;20529;-57
2022/03/19 06:55:41;;;;;;;7.67;3.13;;;;;;;8.28;49.54;102431.47;5070786;28;20164;-57
2022/03/19 06:58:07;;;;;;;8.70;3.53;;;;;;;8.68;48.86;102427.75;5071127;28;20675;-56
2022/03/19 07:00:32;;;;;;;5.67;3.33;;;;;;;9.18;47.52;102428.94;5064978;28;20220;-58
2022/03/19 07:02:57;;;;;;;7.07;3.50;;;;;;;9.47;46.99;102427.75;5082903;28;20196;-58
2022/03/19 07:05:25;;;;;;;9.27;3.17;;;;;;;9.70;46.36;102426.63;5070796;28;20181;-58
2022/03/19 07:07:53;;;;;;;8.77;3.23;;;;;;;10.63;44.87;102417.47;5069608;28;20188;-59
2022/03/19 07:10:19;;;;;;;7.00;3.30;;;;;;;11.00;42.74;102427.09;5063143;28;20165;-59
2022/03/19 07:12:46;;;;;;;8.83;4.00;;;;;;;11.39;43.24;102418.63;5084096;28;20213;-58
2022/03/19 07:15:15;;;;;;;9.50;3.73;;;;;;;10.57;43.68;102426.16;5069436;28;20263;-56
2022/03/19 07:17:43;;;;;;;6.77;3.27;;;;;;;10.79;43.67;102443.78;5069837;28;20390;-59
2022/03/19 07:20:10;;;;;;;10.00;4.33;;;;;;;10.39;44.54;102421.31;5060139;28;20243;-58
2022/03/19 07:23:00;;;;;;;5.60;3.80;;;;;;;11.22;42.93;102419.78;5101141;28;20200;-58
2022/03/19 07:25:28;;;;;;;7.53;4.30;;;;;;;11.05;43.21;102433.03;5070741;28;20165;-58
2022/03/19 07:27:56;;;;;;;6.83;3.53;;;;;;;11.03;43.17;102419.31;5070922;28;20165;-58
2022/03/19 07:30:22;;;;;;;8.60;4.40;;;;;;;10.77;43.59;102425.81;5065202;28;20234;-59
2022/03/19 07:32:48;;;;;;;7.30;4.43;;;;;;;11.45;42.45;102413.34;5098982;28;20538;-59
2022/03/19 07:35:15;;;;;;;6.90;4.27;;;;;;;10.91;43.91;102425.53;5055697;28;20678;-58
2022/03/19 07:37:42;;;;;;;4.77;3.53;;;;;;;11.03;43.84;102424.47;5056571;28;20264;-58
2022/03/19 07:40:10;;;;;;;7.03;4.90;;;;;;;10.79;44.29;102428.34;5046303;28;20185;-58
2022/03/19 07:42:36;;;;;;;10.37;4.33;;;;;;;11.31;44.29;102413.59;5071408;28;20174;-58
2022/03/19 07:45:05;;;;;;;7.03;4.03;;;;;;;11.54;43.20;102423.44;5073365;28;20178;-58
2022/03/19 07:47:31;;;;;;;6.20;4.40;;;;;;;10.27;45.50;102430.91;5058468;28;20173;-56
2022/03/19 07:49:56;;;;;;;7.63;4.03;;;;;;;10.45;46.06;102427.19;5073528;28;20187;-56
2022/03/19 07:52:22;;;;;;;7.57;4.10;;;;;;;10.84;45.02;102448.88;5088117;28;20258;-57
2022/03/19 07:54:47;;;;;;;5.63;3.90;;;;;;;10.34;45.55;102424.81;5036173;28;20372;-57
2022/03/19 07:57:13;;;;;;;10.87;4.30;;;;;;;9.82;47.35;102418.72;5066676;28;20582;-57
2022/03/19 07:59:41;;;;;;;9.83;4.17;;;;;;;9.79;47.91;102416.19;5073453;28;20255;-56
2022/03/19 08:02:06;;;;;;;8.77;3.97;;;;;;;9.98;47.90;102418.50;5057289;28;20307;-57
2022/03/19 08:04:32;;;;;;;6.67;4.10;;;;;;;10.76;46.39;102418.13;5058522;28;20252;-58
2022/03/19 08:06:58;;;;;;;10.63;4.40;;;;;;;10.61;45.81;102419.25;5053637;28;20192;-59
2022/03/19 08:09:23;;;;;;;5.57;4.20;;;;;;;11.12;45.15;102416.56;5064856;28;20186;-58
2022/03/19 08:11:50;;;;;;;9.00;4.67;;;;;;;11.26;45.68;102421.44;5072515;28;20238;-63
2022/03/19 08:14:17;;;;;;;10.67;4.03;;;;;;;11.27;45.66;102417.97;5075341;28;20651;-65
2022/03/19 08:16:44;;;;;;;6.17;3.57;;;;;;;11.53;44.70;102416.59;5072823;28;20239;-64
2022/03/19 08:19:12;;;;;;;8.33;4.67;;;;;;;11.55;44.12;102424.31;5062557;28;20184;-64
2022/03/19 08:21:39;;;;;;;10.37;4.13;;;;;;;10.79;45.06;102424.06;5085140;28;20260;-60
2022/03/19 08:24:06;;;;;;;10.17;4.70;;;;;;;9.65;48.18;102424.09;5074907;28;20231;-57
2022/03/19 08:26:31;;;;;;;6.87;3.50;;;;;;;9.29;49.24;102423.69;5072344;28;20207;-57
2022/03/19 08:28:57;;;;;;;10.20;4.80;;;;;;;8.96;50.33;102424.94;5073572;28;20691;-57
2022/03/19 08:31:22;;;;;;;15.33;4.60;;;;;;;8.97;50.71;102417.19;5042486;28;20244;-58
2022/03/19 08:33:48;;;;;;;10.77;5.17;;;;;;;8.81;51.11;102410.53;5063958;28;20210;-59
2022/03/19 08:36:14;;;;;;;6.97;5.23;;;;;;;8.80;51.18;102408.81;5052385;28;20193;-57
2022/03/19 08:41:23;;;;;;;9.30;4.93;;;;;;;8.80;50.47;102396.84;5081618;28;20358;-59
2022/03/19 08:43:49;;;;;;;7.43;4.70;;;;;;;8.81;50.59;102401.09;5074544;28;20292;-65
2022/03/19 08:46:14;;;;;;;8.33;4.53;;;;;;;8.74;50.85;102396.91;5054722;28;20614;-57
2022/03/19 08:48:39;;;;;;;10.10;5.07;;;;;;;8.58;51.21;102392.78;5058243;28;20311;-57
2022/03/19 08:53:49;;;;;;;5.83;4.93;;;;;;;8.30;51.67;102391.28;5071402;28;20240;-64
2022/03/19 08:56:16;;;;;;;9.03;5.10;;;;;;;8.53;51.46;102386.00;5056584;28;20200;-57
2022/03/19 08:58:42;;;;;;;7.63;5.20;;;;;;;8.82;50.76;102382.28;5072606;28;20684;-57
2022/03/19 09:01:07;;;;;;;10.13;5.50;;;;;;;9.03;50.08;102377.78;5079260;28;20219;-57
2022/03/19 09:03:33;;;;;;;9.13;4.50;;;;;;;9.34;49.80;102383.38;5087968;28;20529;-58
2022/03/19 09:05:59;;;;;;;7.63;4.37;;;;;;;9.41;49.10;102373.88;5068429;28;20188;-57
2022/03/19 09:08:26;;;;;;;8.30;4.77;;;;;;;9.54;49.29;102377.16;5071095;28;20176;-57
2022/03/19 09:10:51;;;;;;;10.00;5.33;;;;;;;9.79;48.11;102372.50;5070299;28;20219;-57
2022/03/19 09:13:17;;;;;;;7.20;4.43;;;;;;;10.64;45.73;102366.00;5075280;28;20198;-57
2022/03/19 09:15:42;;;;;;;6.97;4.47;;;;;;;11.09;44.44;102361.72;5068851;28;20209;-59
2022/03/19 09:18:07;;;;;;;9.90;5.30;;;;;;;11.28;43.53;102367.31;5063406;28;20646;-60
2022/03/19 09:20:33;;;;;;;9.67;5.10;;;;;;;12.11;42.14;102356.84;5070565;28;20571;-59
2022/03/19 09:22:58;;;;;;;9.87;4.50;;;;;;;12.17;42.22;102351.53;5089529;28;20536;-57
2022/03/19 09:25:24;;;;;;;5.93;4.20;;;;;;;12.65;40.83;102358.06;5051665;28;20608;-59
2022/03/19 09:27:49;;;;;;;5.80;4.37;;;;;;;12.09;41.63;102362.06;5050902;28;20169;-66
2022/03/19 09:30:14;;;;;;;10.17;4.20;;;;;;;13.17;39.87;102349.69;5045128;28;20282;-58
2022/03/19 09:32:40;;;;;;;6.77;4.73;;;;;;;12.74;40.50;102344.03;5065357;28;20220;-59
2022/03/19 09:35:06;;;;;;;9.47;4.80;;;;;;;13.31;38.98;102344.97;5051710;28;20169;-59
2022/03/19 09:37:31;;;;;;;8.67;4.50;;;;;;;12.83;39.37;102348.94;5051989;28;20196;-58
2022/03/19 09:39:57;;;;;;;7.90;3.90;;;;;;;12.71;41.57;102320.88;5051676;28;20166;-64
2022/03/19 09:42:23;;;;;;;10.17;5.37;;;;;;;13.77;38.66;102323.75;5057470;28;20330;-62
2022/03/19 09:44:48;;;;;;;10.87;6.37;;;;;;;15.41;35.76;102315.34;5071495;28;20619;-60
2022/03/19 09:47:14;;;;;;;12.87;6.33;;;;;;;14.44;37.03;102305.09;5071983;28;20168;-56
2022/03/19 09:49:39;;;;;;;12.50;6.57;;;;;;;14.99;35.54;102309.19;5070022;28;20788;-64
2022/03/19 09:52:05;;;;;;;11.60;6.88;;;;;;;14.13;36.96;102307.91;5079071;28;20434;-66
2022/03/19 09:54:31;;;;;;;8.23;4.90;;;;;;;13.43;38.69;102299.81;5070370;28;20877;-62
2022/03/19 09:56:57;;;;;;;6.97;4.50;;;;;;;13.28;38.70;102300.28;5071944;28;20526;-62
